createdAt,value
2018-04-10T00:04:15.026Z,13.10
2018-04-10T00:10:19.369Z,13.06
2018-04-10T00:16:23.757Z,12.97
2018-04-10T00:22:28.875Z,13.11
2018-04-10T00:28:33.216Z,12.91
2018-04-10T00:34:37.573Z,12.77
2018-04-10T00:40:41.919Z,12.59
2018-04-10T00:46:47.023Z,12.49
2018-04-10T00:52:51.372Z,12.69
2018-04-10T00:58:55.716Z,12.59
2018-04-10T01:05:00.093Z,12.52
2018-04-10T01:11:04.435Z,12.35
2018-04-10T01:17:08.790Z,12.54
2018-04-10T01:23:13.927Z,12.26
2018-04-10T01:29:18.262Z,12.37
2018-04-10T01:35:22.632Z,12.14
2018-04-10T01:41:27.747Z,12.14
2018-04-10T01:47:32.157Z,12.13
2018-04-10T01:53:36.526Z,12.01
2018-04-10T01:59:40.869Z,11.86
2018-04-10T02:05:45.219Z,11.68
2018-04-10T02:20:14.000Z,11.53
2018-04-10T02:26:18.486Z,11.57
2018-04-10T02:32:22.892Z,11.80
2018-04-10T02:38:27.339Z,12.03
2018-04-10T02:44:31.764Z,11.78
2018-04-10T02:50:36.305Z,11.76
2018-04-10T02:56:40.896Z,11.70
2018-04-10T03:02:45.387Z,11.80
2018-04-10T03:08:49.754Z,11.72
2018-04-10T03:14:54.306Z,11.71
2018-04-10T03:20:58.855Z,11.64
2018-04-10T03:27:03.217Z,11.66
2018-04-10T03:33:07.594Z,11.67
2018-04-10T03:39:12.453Z,11.75
2018-04-10T03:45:17.002Z,11.87
2018-04-10T03:51:21.423Z,11.86
2018-04-10T03:57:25.842Z,11.49
2018-04-10T04:03:30.207Z,11.18
2018-04-10T04:09:35.479Z,11.08
2018-04-10T04:15:40.314Z,10.92
2018-04-10T04:22:07.341Z,10.81
2018-04-10T04:28:11.722Z,10.66
2018-04-10T04:34:16.095Z,10.54
2018-04-10T04:40:20.592Z,10.42
2018-04-10T04:46:24.960Z,10.55
2018-04-10T04:52:29.483Z,10.52
2018-04-10T04:58:34.637Z,10.37
2018-04-10T05:04:39.062Z,10.53
2018-04-10T05:10:44.700Z,10.34
2018-04-10T05:16:49.231Z,10.43
2018-04-10T05:22:54.347Z,10.62
2018-04-10T05:28:59.649Z,10.86
2018-04-10T05:35:04.339Z,10.72
2018-04-10T05:41:08.772Z,11.01
2018-04-10T05:47:14.315Z,11.04
2018-04-10T05:53:18.680Z,11.03
2018-04-10T05:59:23.175Z,11.24
2018-04-10T06:05:27.543Z,11.60
2018-04-10T06:11:31.971Z,11.69
2018-04-10T06:17:37.123Z,11.76
2018-04-10T06:23:41.917Z,11.80
2018-04-10T06:29:47.516Z,12.21
2018-04-10T06:35:51.920Z,12.60
2018-04-10T06:41:56.285Z,12.97
2018-04-10T06:48:00.961Z,13.84
2018-04-10T06:54:05.486Z,17.88
2018-04-10T07:00:10.069Z,21.77
2018-04-10T07:06:14.540Z,23.61
2018-04-10T07:12:18.903Z,23.52
2018-04-10T07:18:24.024Z,21.41
2018-04-10T07:24:28.477Z,19.49
2018-04-10T07:30:33.704Z,18.77
2018-04-10T07:36:38.062Z,18.69
2018-04-10T07:42:43.047Z,18.51
2018-04-10T07:48:47.622Z,18.46
2018-04-10T07:54:52.081Z,18.57
2018-04-10T08:00:57.297Z,18.92
2018-04-10T08:07:02.776Z,19.00
2018-04-10T08:13:07.971Z,19.61
2018-04-10T08:19:13.011Z,19.54
2018-04-10T08:25:17.470Z,19.62
2018-04-10T08:31:21.824Z,19.75
2018-04-10T08:37:26.226Z,19.61
2018-04-10T08:43:30.589Z,19.79
2018-04-10T08:49:34.966Z,20.30
2018-04-10T08:55:39.438Z,20.92
2018-04-10T09:01:44.064Z,21.43
2018-04-10T09:07:48.494Z,21.59
2018-04-10T09:13:52.860Z,22.27
2018-04-10T09:19:57.563Z,22.84
2018-04-10T09:26:02.090Z,23.33
2018-04-10T09:32:08.110Z,24.22
2018-04-10T09:38:13.124Z,24.52
2018-04-10T09:44:17.499Z,25.75
2018-04-10T09:50:21.879Z,26.93
2018-04-10T09:56:26.553Z,27.99
2018-04-10T10:02:31.113Z,28.79
2018-04-10T10:08:35.512Z,29.38
2018-04-10T10:14:39.945Z,28.64
2018-04-10T10:20:44.717Z,28.33
2018-04-10T10:26:49.098Z,29.85
2018-04-10T10:32:53.641Z,32.25
2018-04-10T10:38:58.011Z,33.23
2018-04-10T10:45:02.377Z,32.67
2018-04-10T10:51:06.741Z,33.08
2018-04-10T10:57:11.761Z,34.67
2018-04-10T11:03:16.192Z,32.67
2018-04-10T11:09:20.570Z,33.56
2018-04-10T11:15:25.055Z,33.88
2018-04-10T11:21:30.201Z,34.34
2018-04-10T11:27:34.641Z,34.73
2018-04-10T11:33:39.047Z,34.40
2018-04-10T11:39:43.415Z,35.17
2018-04-10T11:45:47.875Z,35.46
2018-04-10T11:51:52.288Z,34.37
2018-04-10T11:57:56.702Z,35.73
2018-04-10T12:04:01.130Z,35.58
2018-04-10T12:10:05.580Z,36.47
2018-04-10T12:16:10.297Z,35.39
2018-04-10T12:22:14.852Z,35.56
2018-04-10T12:28:19.340Z,33.23
2018-04-10T12:34:23.790Z,33.67
2018-04-10T12:40:28.171Z,33.00
2018-04-10T12:46:32.546Z,34.55
2018-04-10T12:52:36.922Z,36.22
2018-04-10T12:58:41.332Z,35.69
2018-04-10T13:04:45.718Z,35.79
2018-04-10T13:10:50.172Z,35.38
2018-04-10T13:16:55.036Z,34.57
2018-04-10T13:22:59.454Z,35.53
2018-04-10T13:29:03.909Z,36.36
2018-04-10T13:35:08.444Z,35.08
2018-04-10T13:41:13.634Z,35.60
2018-04-10T13:47:18.113Z,35.32
2018-04-10T13:53:23.252Z,35.20
2018-04-10T13:59:27.761Z,33.91
2018-04-10T14:05:32.143Z,33.25
2018-04-10T14:11:36.731Z,32.46
2018-04-10T14:17:42.608Z,32.59
2018-04-10T14:23:47.212Z,32.96
2018-04-10T14:29:51.585Z,33.79
2018-04-10T14:35:55.966Z,33.67
2018-04-10T14:42:01.092Z,34.19
2018-04-10T14:48:05.502Z,33.67
2018-04-10T14:54:10.099Z,31.20
2018-04-10T15:00:14.729Z,29.92
2018-04-10T15:06:19.093Z,29.24
2018-04-10T15:12:23.477Z,28.76
2018-04-10T15:18:27.833Z,27.81
2018-04-10T15:24:32.257Z,28.73
2018-04-10T15:30:36.716Z,28.05
2018-04-10T15:36:41.291Z,28.00
2018-04-10T15:42:46.425Z,27.08
2018-04-10T15:48:50.815Z,26.45
2018-04-10T15:54:55.218Z,25.93
2018-04-10T16:00:59.586Z,25.21
2018-04-10T16:07:04.713Z,24.50
2018-04-10T16:13:09.176Z,25.12
2018-04-10T16:19:13.964Z,26.89
2018-04-10T16:25:18.413Z,26.99
2018-04-10T16:31:23.543Z,27.12
2018-04-10T16:37:27.942Z,26.88
2018-04-10T16:43:32.300Z,27.74
2018-04-10T16:49:36.685Z,27.86
2018-04-10T16:55:42.367Z,25.72
2018-04-10T17:01:46.778Z,24.90
2018-04-10T17:07:51.169Z,24.60
2018-04-10T17:13:56.446Z,23.80
2018-04-10T17:20:01.712Z,23.46
2018-04-10T17:26:06.084Z,22.94
2018-04-10T17:32:10.544Z,22.27
2018-04-10T17:38:15.184Z,21.90
2018-04-10T17:44:19.561Z,21.74
2018-04-10T17:50:23.939Z,21.48
2018-04-10T17:56:28.341Z,21.23
2018-04-10T18:02:32.722Z,20.72
2018-04-10T18:08:37.077Z,20.08
2018-04-10T18:14:43.027Z,19.70
2018-04-10T18:20:47.480Z,19.46
2018-04-10T18:26:52.107Z,19.25
2018-04-10T18:32:56.480Z,18.79
2018-04-10T18:39:00.826Z,19.11
2018-04-10T18:45:05.292Z,18.71
2018-04-10T18:51:09.719Z,18.57
2018-04-10T18:57:14.198Z,18.54
2018-04-10T19:03:18.548Z,18.59
2018-04-10T19:09:22.960Z,18.73
2018-04-10T19:15:27.310Z,18.57
2018-04-10T19:21:31.745Z,18.92
2018-04-10T19:27:36.098Z,18.94
2018-04-10T19:33:41.368Z,18.80
2018-04-10T19:39:45.750Z,18.77
2018-04-10T19:45:50.248Z,18.66
2018-04-10T19:51:54.605Z,18.50
2018-04-10T19:57:58.975Z,18.34
2018-04-10T20:04:03.384Z,18.21
2018-04-10T20:10:07.767Z,17.78
2018-04-10T20:16:12.922Z,17.56
2018-04-10T20:22:18.057Z,17.58
2018-04-10T20:28:22.418Z,17.48
2018-04-10T20:34:26.775Z,17.40
2018-04-10T20:40:31.147Z,17.21
2018-04-10T20:46:35.539Z,17.30
2018-04-10T20:52:40.370Z,17.36
2018-04-10T20:58:45.559Z,17.52
2018-04-10T21:04:50.069Z,17.33
2018-04-10T21:10:54.453Z,17.11
2018-04-10T21:16:59.570Z,17.03
2018-04-10T21:23:03.932Z,16.87
2018-04-10T21:29:08.308Z,17.05
2018-04-10T21:35:13.482Z,16.87
2018-04-10T21:41:17.883Z,16.70
2018-04-10T21:47:22.252Z,16.70
2018-04-10T21:53:27.414Z,16.73
2018-04-10T21:59:31.822Z,16.64
2018-04-10T22:05:37.017Z,16.30
2018-04-10T22:11:42.228Z,16.16
2018-04-10T22:17:46.623Z,16.21
2018-04-10T22:23:50.982Z,16.03
2018-04-10T22:29:55.330Z,15.96
2018-04-10T22:36:00.415Z,15.89
2018-04-10T22:42:04.782Z,15.78
2018-04-10T22:48:09.137Z,15.30
2018-04-10T22:54:15.187Z,15.32
2018-04-10T23:00:33.139Z,15.52
2018-04-10T23:06:37.195Z,15.51
2018-04-10T23:12:43.263Z,15.35
2018-04-10T23:18:47.699Z,15.14
2018-04-10T23:24:52.082Z,15.16
2018-04-10T23:30:56.431Z,15.26
2018-04-10T23:37:00.808Z,15.40
2018-04-10T23:43:05.186Z,15.56
2018-04-10T23:49:09.861Z,15.63
2018-04-10T23:55:14.231Z,15.57
